createdAt,value
2022-10-29T00:00:00.591Z,50.902382
2022-10-29T00:01:00.603Z,50.902378
2022-10-29T00:02:00.655Z,50.902393
2022-10-29T00:03:00.613Z,50.902386
2022-10-29T00:04:00.580Z,50.902386
2022-10-29T00:05:00.544Z,50.902390
2022-10-29T00:06:00.574Z,50.902348
2022-10-29T00:07:00.536Z,50.902416
2022-10-29T00:08:00.518Z,50.902428
2022-10-29T00:09:00.513Z,50.902390
2022-10-29T00:10:00.516Z,50.902382
2022-10-29T00:11:00.522Z,50.902405
2022-10-29T00:12:00.494Z,50.902378
2022-10-29T00:13:00.486Z,50.902397
2022-10-29T00:14:00.476Z,50.902412
2022-10-29T00:15:00.462Z,50.902401
2022-10-29T00:16:00.489Z,50.902378
2022-10-29T00:17:00.446Z,50.902393
2022-10-29T00:18:00.441Z,50.902378
2022-10-29T00:19:00.437Z,50.902363
2022-10-29T00:20:00.499Z,50.902367
2022-10-29T00:21:00.445Z,50.902370
2022-10-29T00:22:00.414Z,50.902382
2022-10-29T00:23:00.408Z,50.902390
2022-10-29T00:24:00.401Z,50.902374
2022-10-29T00:25:00.381Z,50.902378
2022-10-29T00:26:00.421Z,50.902405
2022-10-29T00:27:00.379Z,50.902359
2022-10-29T00:28:00.369Z,50.902397
2022-10-29T00:29:00.361Z,50.902390
2022-10-29T00:30:00.352Z,50.902386
2022-10-29T00:31:00.368Z,50.902382
2022-10-29T00:32:00.364Z,50.902382
2022-10-29T00:33:00.395Z,50.902382
2022-10-29T00:34:00.314Z,50.902409
2022-10-29T00:35:00.313Z,50.902393
2022-10-29T00:36:00.323Z,50.902390
2022-10-29T00:37:00.298Z,50.902397
2022-10-29T00:38:00.283Z,50.902397
2022-10-29T00:39:00.279Z,50.902374
2022-10-29T00:40:00.273Z,50.902370
2022-10-29T00:41:00.284Z,50.902355
2022-10-29T00:42:00.243Z,50.902359
2022-10-29T00:43:01.277Z,50.902359
2022-10-29T00:44:00.241Z,50.902378
2022-10-29T00:45:00.231Z,50.902359
2022-10-29T00:46:00.245Z,50.902363
2022-10-29T00:47:00.215Z,50.902374
2022-10-29T00:48:00.209Z,50.902374
2022-10-29T00:49:00.202Z,50.902355
2022-10-29T00:50:00.192Z,50.902409
2022-10-29T00:51:00.208Z,50.902401
2022-10-29T00:52:00.169Z,50.902393
2022-10-29T00:53:00.165Z,50.902390
2022-10-29T00:54:00.152Z,50.902359
2022-10-29T00:55:00.146Z,50.902424
2022-10-29T00:56:00.169Z,50.902390
2022-10-29T00:57:00.136Z,50.902393
2022-10-29T00:58:00.126Z,50.902390
2022-10-29T00:59:00.116Z,50.902405
2022-10-29T01:00:00.130Z,50.902412
2022-10-29T01:01:00.144Z,50.902405
2022-10-29T01:02:00.242Z,50.902416
2022-10-29T01:03:00.301Z,50.902382
2022-10-29T01:04:00.104Z,50.902405
2022-10-29T01:05:00.089Z,50.902393
2022-10-29T01:06:00.089Z,50.902409
2022-10-29T01:07:01.051Z,50.902412
2022-10-29T01:08:00.052Z,50.902424
2022-10-29T01:09:00.041Z,50.902428
2022-10-29T01:10:00.063Z,50.902416
2022-10-29T01:11:00.019Z,50.902409
2022-10-29T01:12:00.023Z,50.902397
2022-10-29T01:13:00.010Z,50.902405
2022-10-29T01:13:59.997Z,50.902405
2022-10-29T01:15:00.029Z,50.902401
2022-10-29T01:15:59.988Z,50.902393
2022-10-29T01:16:59.982Z,50.902405
2022-10-29T01:17:59.967Z,50.902405
2022-10-29T01:19:00.009Z,50.902393
2022-10-29T01:19:59.975Z,50.902393
2022-10-29T01:20:59.975Z,50.902405
2022-10-29T01:21:59.937Z,50.902405
2022-10-29T01:22:59.936Z,50.902397
2022-10-29T01:23:59.920Z,50.902397
2022-10-29T01:24:59.916Z,50.902390
2022-10-29T01:25:59.931Z,50.902412
2022-10-29T01:26:59.898Z,50.902397
2022-10-29T01:27:59.945Z,50.902405
2022-10-29T01:28:59.889Z,50.902405
2022-10-29T01:29:59.878Z,50.902390
2022-10-29T01:30:59.904Z,50.902401
2022-10-29T01:31:59.865Z,50.902412
2022-10-29T01:32:59.853Z,50.902401
2022-10-29T01:33:59.853Z,50.902386
2022-10-29T01:34:59.838Z,50.902386
2022-10-29T01:35:59.859Z,50.902386
2022-10-29T01:36:59.824Z,50.902412
2022-10-29T01:37:59.820Z,50.902401
2022-10-29T01:38:59.813Z,50.902424
2022-10-29T01:39:59.802Z,50.902435
2022-10-29T01:40:59.832Z,50.902451
2022-10-29T01:41:59.791Z,50.902431
2022-10-29T01:43:32.657Z,50.902447
2022-10-29T01:43:59.778Z,50.902416
2022-10-29T01:44:59.772Z,50.902393
2022-10-29T01:45:59.780Z,50.902382
2022-10-29T01:46:59.773Z,50.902401
2022-10-29T01:48:00.743Z,50.902405
2022-10-29T01:48:59.735Z,50.902443
2022-10-29T01:49:59.731Z,50.902428
2022-10-29T01:50:59.745Z,50.902412
2022-10-29T01:51:59.713Z,50.902397
2022-10-29T01:52:59.705Z,50.902435
2022-10-29T01:53:59.690Z,50.902451
2022-10-29T01:54:59.687Z,50.902424
2022-10-29T01:55:59.718Z,50.902412
2022-10-29T01:56:59.665Z,50.902382
2022-10-29T01:57:59.852Z,50.902451
2022-10-29T01:58:59.656Z,50.902454
2022-10-29T01:59:59.646Z,50.902443
2022-10-29T02:00:59.701Z,50.902378
2022-10-29T02:01:59.675Z,50.902393
2022-10-29T02:03:00.046Z,50.902382
2022-10-29T02:03:59.622Z,50.902348
2022-10-29T02:04:59.648Z,50.902351
2022-10-29T02:05:59.600Z,50.902378
2022-10-29T02:06:59.620Z,50.902382
2022-10-29T02:07:59.582Z,50.902401
2022-10-29T02:08:59.577Z,50.902321
2022-10-29T02:09:59.580Z,50.902317
2022-10-29T02:10:59.564Z,50.902355
2022-10-29T02:11:59.585Z,50.902328
2022-10-29T02:12:59.717Z,50.902313
2022-10-29T02:13:59.544Z,50.902336
2022-10-29T02:14:59.525Z,50.902393
2022-10-29T02:15:59.533Z,50.902332
2022-10-29T02:16:59.551Z,50.902344
2022-10-29T02:17:59.498Z,50.902359
2022-10-29T02:18:59.497Z,50.902313
2022-10-29T02:19:59.492Z,50.902325
2022-10-29T02:20:59.486Z,50.902340
2022-10-29T02:21:59.500Z,50.902435
2022-10-29T02:22:59.476Z,50.902374
2022-10-29T02:23:59.471Z,50.902401
2022-10-29T02:24:59.480Z,50.902374
2022-10-29T02:25:59.441Z,50.902355
2022-10-29T02:26:59.475Z,50.902386
2022-10-29T02:27:59.482Z,50.902370
2022-10-29T02:28:59.429Z,50.902378
2022-10-29T02:29:59.427Z,50.902359
2022-10-29T02:30:59.421Z,50.902359
2022-10-29T02:31:59.425Z,50.902340
2022-10-29T02:32:59.735Z,50.902340
2022-10-29T02:33:59.464Z,50.902363
2022-10-29T02:34:59.381Z,50.902283
2022-10-29T02:35:59.372Z,50.902252
2022-10-29T02:36:59.391Z,50.902317
2022-10-29T02:37:59.358Z,50.902374
2022-10-29T02:38:59.356Z,50.902351
2022-10-29T02:39:59.339Z,50.902340
2022-10-29T02:40:59.353Z,50.902378
2022-10-29T02:41:59.340Z,50.902386
2022-10-29T02:42:59.486Z,50.902424
2022-10-29T02:43:59.296Z,50.902428
2022-10-29T02:44:59.344Z,50.902424
2022-10-29T02:45:59.342Z,50.902431
2022-10-29T02:46:59.309Z,50.902420
2022-10-29T02:47:59.562Z,50.902405
2022-10-29T02:48:59.265Z,50.902412
2022-10-29T02:49:59.251Z,50.902435
2022-10-29T02:50:59.258Z,50.902431
2022-10-29T02:51:59.269Z,50.902412
2022-10-29T02:52:59.240Z,50.902416
2022-10-29T02:53:59.226Z,50.902405
2022-10-29T02:54:59.222Z,50.902397
2022-10-29T02:55:59.216Z,50.902409
2022-10-29T02:56:59.235Z,50.902393
2022-10-29T02:57:59.249Z,50.902412
2022-10-29T02:58:59.218Z,50.902458
2022-10-29T02:59:59.185Z,50.902428
2022-10-29T03:00:59.179Z,50.902393
2022-10-29T03:01:59.294Z,50.902435
2022-10-29T03:02:59.520Z,50.902405
2022-10-29T03:03:59.145Z,50.902420
2022-10-29T03:04:59.144Z,50.902397
2022-10-29T03:05:59.134Z,50.902409
2022-10-29T03:06:59.147Z,50.902382
2022-10-29T03:07:59.116Z,50.902374
2022-10-29T03:08:59.117Z,50.902397
2022-10-29T03:09:59.115Z,50.902405
2022-10-29T03:10:59.083Z,50.902382
2022-10-29T03:11:59.114Z,50.902401
2022-10-29T03:12:59.071Z,50.902401
2022-10-29T03:13:59.067Z,50.902424
2022-10-29T03:14:59.068Z,50.902420
2022-10-29T03:15:59.052Z,50.902428
2022-10-29T03:16:59.042Z,50.902424
2022-10-29T03:17:59.162Z,50.902420
2022-10-29T03:18:59.030Z,50.902420
2022-10-29T03:19:59.016Z,50.902420
2022-10-29T03:20:59.013Z,50.902405
2022-10-29T03:21:59.009Z,50.902424
2022-10-29T03:22:59.023Z,50.902424
2022-10-29T03:23:59.012Z,50.902428
2022-10-29T03:24:58.982Z,50.902397
2022-10-29T03:25:58.967Z,50.902412
2022-10-29T03:26:58.966Z,50.902428
2022-10-29T03:27:59.118Z,50.902420
2022-10-29T03:28:58.954Z,50.902412
2022-10-29T03:29:58.940Z,50.902416
2022-10-29T03:30:58.938Z,50.902416
2022-10-29T03:31:58.930Z,50.902424
2022-10-29T03:32:59.311Z,50.902409
2022-10-29T03:33:58.910Z,50.902386
2022-10-29T03:35:00.004Z,50.902401
2022-10-29T03:35:59.975Z,50.902416
2022-10-29T03:36:58.898Z,50.902420
2022-10-29T03:37:58.925Z,50.902412
2022-10-29T03:38:58.868Z,50.902409
2022-10-29T03:39:58.869Z,50.902420
2022-10-29T03:40:58.852Z,50.902412
2022-10-29T03:41:59.849Z,50.902412
2022-10-29T03:42:59.137Z,50.902412
2022-10-29T03:43:59.836Z,50.902420
2022-10-29T03:44:58.826Z,50.902420
2022-10-29T03:45:58.835Z,50.902435
2022-10-29T03:46:58.813Z,50.902409
2022-10-29T03:47:59.023Z,50.902428
2022-10-29T03:48:58.789Z,50.902409
2022-10-29T03:49:58.796Z,50.902424
2022-10-29T03:50:58.807Z,50.902443
2022-10-29T03:51:59.777Z,50.902458
2022-10-29T03:52:58.819Z,50.902439
2022-10-29T03:53:58.759Z,50.902405
2022-10-29T03:54:58.750Z,50.902428
2022-10-29T03:55:58.741Z,50.902390
2022-10-29T03:56:58.731Z,50.902428
2022-10-29T03:57:59.052Z,50.902401
2022-10-29T03:58:58.776Z,50.902393
2022-10-29T03:59:58.711Z,50.902390
2022-10-29T04:00:58.706Z,50.902401
2022-10-29T04:01:58.757Z,50.902439
2022-10-29T04:02:59.269Z,50.902470
2022-10-29T04:03:58.676Z,50.902443
2022-10-29T04:04:58.713Z,50.902409
2022-10-29T04:05:58.658Z,50.902428
2022-10-29T04:06:58.672Z,50.902401
2022-10-29T04:07:58.668Z,50.902416
2022-10-29T04:08:58.622Z,50.902401
2022-10-29T04:09:59.622Z,50.902386
2022-10-29T04:10:58.615Z,50.902412
2022-10-29T04:11:58.612Z,50.902382
2022-10-29T04:12:58.962Z,50.902412
2022-10-29T04:13:58.593Z,50.902348
2022-10-29T04:14:58.586Z,50.902325
2022-10-29T04:15:58.573Z,50.902378
2022-10-29T04:16:58.582Z,50.902370
2022-10-29T04:17:59.007Z,50.902386
2022-10-29T04:18:58.552Z,50.902397
2022-10-29T04:19:58.543Z,50.902424
2022-10-29T04:27:21.344Z,50.902397
2022-10-29T04:29:00.518Z,50.902451
2022-10-29T04:29:58.517Z,50.902470
2022-10-29T04:30:58.450Z,50.902420
2022-10-29T04:31:59.454Z,50.902489
2022-10-29T04:32:58.857Z,50.902504
2022-10-29T04:33:58.445Z,50.902428
2022-10-29T04:34:58.434Z,50.902412
2022-10-29T04:35:58.434Z,50.902485
2022-10-29T04:36:58.427Z,50.902454
2022-10-29T04:37:58.443Z,50.902405
2022-10-29T04:38:58.415Z,50.902431
2022-10-29T04:39:58.405Z,50.902416
2022-10-29T04:40:58.393Z,50.902378
2022-10-29T04:41:58.378Z,50.902405
2022-10-29T04:42:58.664Z,50.902332
2022-10-29T04:43:58.370Z,50.902374
2022-10-29T04:44:58.352Z,50.902409
2022-10-29T04:45:58.343Z,50.902428
2022-10-29T04:46:58.356Z,50.902454
2022-10-29T04:47:58.673Z,50.902397
2022-10-29T04:48:58.417Z,50.902397
2022-10-29T04:49:58.318Z,50.902409
2022-10-29T04:50:58.316Z,50.902344
2022-10-29T04:51:58.312Z,50.902370
2022-10-29T04:52:58.286Z,50.902527
2022-10-29T04:53:59.315Z,50.902576
2022-10-29T04:54:58.279Z,50.902477
2022-10-29T04:55:58.271Z,50.902519
2022-10-29T04:56:58.263Z,50.902443
2022-10-29T04:57:58.628Z,50.902340
2022-10-29T04:58:58.282Z,50.902439
2022-10-29T04:59:58.230Z,50.902424
2022-10-29T05:00:59.314Z,50.902412
2022-10-29T05:01:58.223Z,50.902439
2022-10-29T05:02:58.648Z,50.902439
2022-10-29T05:04:00.098Z,50.902424
2022-10-29T05:04:58.200Z,50.902443
2022-10-29T05:05:58.189Z,50.902447
2022-10-29T05:06:58.181Z,50.902443
2022-10-29T05:07:58.177Z,50.902439
2022-10-29T05:08:58.191Z,50.902458
2022-10-29T05:09:58.164Z,50.902431
2022-10-29T05:10:58.149Z,50.902431
2022-10-29T05:11:58.141Z,50.902428
2022-10-29T05:12:58.325Z,50.902443
2022-10-29T05:13:58.157Z,50.902416
2022-10-29T05:14:58.123Z,50.902443
2022-10-29T05:15:58.106Z,50.902428
2022-10-29T05:16:58.181Z,50.902424
2022-10-29T05:17:58.289Z,50.902439
2022-10-29T05:18:58.108Z,50.902428
2022-10-29T05:19:58.083Z,50.902428
2022-10-29T05:20:58.069Z,50.902439
2022-10-29T05:21:58.062Z,50.902420
2022-10-29T05:22:58.068Z,50.902428
2022-10-29T05:23:58.070Z,50.902431
2022-10-29T05:24:58.038Z,50.902431
2022-10-29T05:25:58.028Z,50.902451
2022-10-29T05:26:58.033Z,50.902500
2022-10-29T05:27:58.232Z,50.902454
2022-10-29T05:28:58.033Z,50.902443
2022-10-29T05:29:57.996Z,50.902443
2022-10-29T05:30:57.990Z,50.902420
2022-10-29T05:31:57.986Z,50.902428
2022-10-29T05:32:58.378Z,50.902451
2022-10-29T05:33:57.990Z,50.902409
2022-10-29T05:34:57.965Z,50.902447
2022-10-29T05:35:57.951Z,50.902431
2022-10-29T05:36:57.947Z,50.902428
2022-10-29T05:37:57.939Z,50.902454
2022-10-29T05:38:57.953Z,50.902447
2022-10-29T05:39:57.922Z,50.902412
2022-10-29T05:40:57.924Z,50.902420
2022-10-29T05:41:57.916Z,50.902390
2022-10-29T05:42:58.277Z,50.902401
2022-10-29T05:43:58.916Z,50.902416
2022-10-29T05:44:57.892Z,50.902412
2022-10-29T05:45:57.880Z,50.902397
2022-10-29T05:46:57.873Z,50.902466
2022-10-29T05:47:57.918Z,50.902443
2022-10-29T05:48:57.882Z,50.902412
2022-10-29T05:49:57.851Z,50.902416
2022-10-29T05:50:57.839Z,50.902447
2022-10-29T05:51:57.835Z,50.902477
2022-10-29T05:52:58.316Z,50.902481
2022-10-29T05:53:57.846Z,50.902416
2022-10-29T05:54:57.814Z,50.902428
2022-10-29T05:55:57.810Z,50.902386
2022-10-29T05:56:57.802Z,50.902378
2022-10-29T05:57:57.817Z,50.902382
2022-10-29T05:58:57.809Z,50.902390
2022-10-29T05:59:57.777Z,50.902393
2022-10-29T06:00:57.776Z,50.902332
2022-10-29T06:01:57.883Z,50.902359
2022-10-29T06:02:58.155Z,50.902401
2022-10-29T06:03:57.780Z,50.902424
2022-10-29T06:04:57.743Z,50.902397
2022-10-29T06:05:57.741Z,50.902390
2022-10-29T06:06:57.770Z,50.902332
2022-10-29T06:07:57.913Z,50.902462
2022-10-29T06:08:57.731Z,50.902431
2022-10-29T06:09:57.695Z,50.902470
2022-10-29T06:10:57.690Z,50.902405
2022-10-29T06:11:57.677Z,50.902431
2022-10-29T06:12:57.677Z,50.902424
2022-10-29T06:13:57.696Z,50.902458
2022-10-29T06:14:57.668Z,50.902412
2022-10-29T06:15:57.649Z,50.902351
2022-10-29T06:16:57.641Z,50.902443
2022-10-29T06:17:58.116Z,50.902424
2022-10-29T06:18:57.669Z,50.902386
2022-10-29T06:19:57.630Z,50.902431
2022-10-29T06:20:57.607Z,50.902439
2022-10-29T06:22:00.323Z,50.902397
2022-10-29T06:22:58.097Z,50.902458
2022-10-29T06:23:57.620Z,50.902439
2022-10-29T06:24:57.580Z,50.902397
2022-10-29T06:25:57.577Z,50.902439
2022-10-29T06:26:57.559Z,50.902489
2022-10-29T06:27:58.560Z,50.902439
2022-10-29T06:28:57.582Z,50.902428
2022-10-29T06:29:57.549Z,50.902416
2022-10-29T06:30:57.545Z,50.902412
2022-10-29T06:31:57.545Z,50.902401
2022-10-29T06:32:57.864Z,50.902405
2022-10-29T06:33:57.548Z,50.902416
2022-10-29T06:34:57.504Z,50.902424
2022-10-29T06:35:57.501Z,50.902412
2022-10-29T06:36:57.496Z,50.902416
2022-10-29T06:37:57.766Z,50.902405
2022-10-29T06:38:57.500Z,50.902416
2022-10-29T06:39:57.469Z,50.902340
2022-10-29T06:40:57.460Z,50.902370
2022-10-29T06:41:57.456Z,50.902431
2022-10-29T06:42:57.448Z,50.902439
2022-10-29T06:43:57.468Z,50.902409
2022-10-29T06:44:57.443Z,50.902416
2022-10-29T06:45:57.429Z,50.902428
2022-10-29T06:46:57.416Z,50.902458
2022-10-29T06:47:57.865Z,50.902508
2022-10-29T06:48:57.429Z,50.902512
2022-10-29T06:49:57.413Z,50.902527
2022-10-29T06:50:57.390Z,50.902485
2022-10-29T06:51:57.386Z,50.902489
2022-10-29T06:52:57.907Z,50.902531
2022-10-29T06:53:57.396Z,50.902500
2022-10-29T06:54:57.361Z,50.902447
2022-10-29T06:55:57.350Z,50.902481
2022-10-29T06:56:57.344Z,50.902397
2022-10-29T06:57:57.339Z,50.902409
2022-10-29T06:58:57.388Z,50.902382
2022-10-29T06:59:57.324Z,50.902405
2022-10-29T07:01:57.341Z,50.902515
2022-10-29T07:02:57.814Z,50.902428
2022-10-29T07:03:57.320Z,50.902409
2022-10-29T07:04:57.286Z,50.902397
2022-10-29T07:05:57.276Z,50.902416
2022-10-29T07:06:57.264Z,50.902386
2022-10-29T07:07:57.691Z,50.902405
2022-10-29T07:08:57.278Z,50.902409
2022-10-29T07:09:57.250Z,50.902424
2022-10-29T07:10:57.240Z,50.902435
2022-10-29T07:11:57.223Z,50.902435
2022-10-29T07:12:57.222Z,50.902431
2022-10-29T07:13:57.206Z,50.902466
2022-10-29T07:14:57.250Z,50.902439
2022-10-29T07:15:57.196Z,50.902431
2022-10-29T07:16:57.185Z,50.902435
2022-10-29T07:17:57.662Z,50.902382
2022-10-29T07:18:57.173Z,50.902424
2022-10-29T07:19:57.192Z,50.902393
2022-10-29T07:20:57.154Z,50.902390
2022-10-29T07:21:57.156Z,50.902374
2022-10-29T07:22:57.139Z,50.902359
2022-10-29T07:23:57.206Z,50.902359
2022-10-29T07:25:00.214Z,50.902363
2022-10-29T07:25:58.120Z,50.902351
2022-10-29T07:26:57.119Z,50.902359
2022-10-29T07:27:57.493Z,50.902397
2022-10-29T07:28:57.127Z,50.902378
2022-10-29T07:29:57.117Z,50.902393
2022-10-29T07:30:57.092Z,50.902363
2022-10-29T07:31:57.078Z,50.902386
2022-10-29T07:32:57.066Z,50.902386
2022-10-29T07:33:57.058Z,50.902332
2022-10-29T07:34:57.074Z,50.902328
2022-10-29T07:35:57.087Z,50.902317
2022-10-29T07:36:57.032Z,50.902340
2022-10-29T07:37:57.656Z,50.902367
2022-10-29T07:38:57.032Z,50.902332
2022-10-29T07:39:57.048Z,50.902313
2022-10-29T07:40:57.051Z,50.902340
2022-10-29T07:41:59.213Z,50.902348
2022-10-29T07:43:31.264Z,50.902355
2022-10-29T07:43:56.980Z,50.902355
2022-10-29T07:44:56.991Z,50.902344
2022-10-29T07:45:56.966Z,50.902378
2022-10-29T07:46:56.956Z,50.902378
2022-10-29T07:48:02.210Z,50.902393
2022-10-29T07:48:58.941Z,50.902393
2022-10-29T07:49:56.968Z,50.902378
2022-10-29T07:50:56.926Z,50.902344
2022-10-29T07:51:56.915Z,50.902340
2022-10-29T07:52:57.247Z,50.902328
2022-10-29T07:53:56.896Z,50.902325
2022-10-29T07:54:56.918Z,50.902340
2022-10-29T07:55:56.888Z,50.902348
2022-10-29T07:56:56.875Z,50.902321
2022-10-29T07:57:57.382Z,50.902348
2022-10-29T07:58:56.857Z,50.902348
2022-10-29T07:59:56.872Z,50.902367
2022-10-29T08:00:56.934Z,50.902348
2022-10-29T08:01:56.907Z,50.902348
2022-10-29T08:02:56.845Z,50.902374
2022-10-29T08:03:56.814Z,50.902374
2022-10-29T08:04:56.835Z,50.902374
2022-10-29T08:05:56.931Z,50.902374
2022-10-29T08:06:56.794Z,50.902367
2022-10-29T08:07:57.196Z,50.902386
2022-10-29T08:08:56.783Z,50.902382
2022-10-29T08:09:56.798Z,50.902378
2022-10-29T08:10:56.765Z,50.902370
2022-10-29T08:11:56.762Z,50.902386
2022-10-29T08:12:57.167Z,50.902367
2022-10-29T08:13:56.739Z,50.902386
2022-10-29T08:14:56.764Z,50.902397
2022-10-29T08:15:56.725Z,50.902382
2022-10-29T08:16:56.716Z,50.902409
2022-10-29T08:17:56.716Z,50.902374
2022-10-29T08:18:56.800Z,50.902390
2022-10-29T08:19:56.723Z,50.902374
2022-10-29T08:20:56.688Z,50.902370
2022-10-29T08:21:56.682Z,50.902363
2022-10-29T08:22:56.837Z,50.902344
2022-10-29T08:23:56.665Z,50.902351
2022-10-29T08:24:56.670Z,50.902367
2022-10-29T08:25:57.671Z,50.902367
2022-10-29T08:26:56.645Z,50.902355
2022-10-29T08:27:56.646Z,50.902359
2022-10-29T08:28:56.609Z,50.902382
2022-10-29T08:29:57.655Z,50.902390
2022-10-29T08:30:56.610Z,50.902382
2022-10-29T08:31:56.600Z,50.902355
2022-10-29T08:32:56.806Z,50.902340
2022-10-29T08:33:56.590Z,50.902405
2022-10-29T08:34:56.586Z,50.902397
2022-10-29T08:35:56.592Z,50.902374
2022-10-29T08:36:56.569Z,50.902390
2022-10-29T08:37:56.555Z,50.902386
2022-10-29T08:38:56.543Z,50.902351
2022-10-29T08:39:56.536Z,50.902393
2022-10-29T08:40:56.563Z,50.902412
2022-10-29T08:41:56.529Z,50.902378
2022-10-29T08:42:56.829Z,50.902340
2022-10-29T08:43:56.591Z,50.902340
2022-10-29T08:44:56.498Z,50.902386
2022-10-29T08:45:56.518Z,50.902367
2022-10-29T08:46:56.482Z,50.902401
2022-10-29T08:47:56.740Z,50.902401
2022-10-29T08:48:56.465Z,50.902348
2022-10-29T08:49:56.449Z,50.902348
2022-10-29T08:50:56.484Z,50.902359
2022-10-29T08:51:56.446Z,50.902420
2022-10-29T08:53:19.458Z,50.902409
2022-10-29T08:54:58.413Z,50.902420
2022-10-29T08:55:56.444Z,50.902405
2022-10-29T08:56:56.405Z,50.902393
2022-10-29T08:57:56.644Z,50.902382
2022-10-29T08:58:56.383Z,50.902390
2022-10-29T08:59:56.438Z,50.902378
2022-10-29T09:00:56.449Z,50.902386
2022-10-29T09:01:56.478Z,50.902401
2022-10-29T09:02:56.705Z,50.902370
2022-10-29T09:03:56.343Z,50.902390
2022-10-29T09:04:56.345Z,50.902325
2022-10-29T09:05:56.361Z,50.902355
2022-10-29T09:06:56.334Z,50.902397
2022-10-29T09:07:58.401Z,50.902393
2022-10-29T09:08:57.314Z,50.902397
2022-10-29T09:09:56.299Z,50.902412
2022-10-29T09:10:56.323Z,50.902382
2022-10-29T09:11:56.286Z,50.902390
2022-10-29T09:12:56.568Z,50.902351
2022-10-29T09:13:56.269Z,50.902344
2022-10-29T09:14:56.264Z,50.902382
2022-10-29T09:15:57.789Z,50.902431
2022-10-29T09:16:57.270Z,50.902382
2022-10-29T09:17:56.516Z,50.902405
2022-10-29T09:18:56.240Z,50.902428
2022-10-29T09:19:56.226Z,50.902412
2022-10-29T09:20:56.238Z,50.902393
2022-10-29T09:21:56.217Z,50.902390
2022-10-29T09:22:56.198Z,50.902412
2022-10-29T09:23:56.195Z,50.902378
2022-10-29T09:24:56.172Z,50.902416
2022-10-29T09:25:57.197Z,50.902374
2022-10-29T09:26:56.168Z,50.902374
2022-10-29T09:27:56.321Z,50.902439
2022-10-29T09:28:56.153Z,50.902409
2022-10-29T09:29:56.151Z,50.902393
2022-10-29T09:30:56.161Z,50.902412
2022-10-29T09:31:56.129Z,50.902439
2022-10-29T09:32:56.130Z,50.902370
2022-10-29T09:33:59.263Z,50.902424
2022-10-29T09:34:57.107Z,50.902439
2022-10-29T09:35:56.132Z,50.902405
2022-10-29T09:36:56.096Z,50.902405
2022-10-29T09:37:56.483Z,50.902424
2022-10-29T09:38:56.095Z,50.902424
2022-10-29T09:39:56.060Z,50.902390
2022-10-29T09:40:56.084Z,50.902332
2022-10-29T09:41:56.052Z,50.902332
2022-10-29T09:42:56.058Z,50.902344
2022-10-29T09:43:56.040Z,50.902370
2022-10-29T09:44:56.037Z,50.902397
2022-10-29T09:45:56.051Z,50.902447
2022-10-29T09:46:56.023Z,50.902382
2022-10-29T09:47:56.307Z,50.902390
2022-10-29T09:48:56.037Z,50.902431
2022-10-29T09:49:55.989Z,50.902401
2022-10-29T09:50:56.008Z,50.902428
2022-10-29T09:51:55.974Z,50.902416
2022-10-29T09:52:56.175Z,50.902367
2022-10-29T09:53:55.983Z,50.902336
2022-10-29T09:54:55.956Z,50.902386
2022-10-29T09:55:55.969Z,50.902367
2022-10-29T09:56:56.322Z,50.902363
2022-10-29T09:57:56.941Z,50.902336
2022-10-29T09:58:55.916Z,50.902325
2022-10-29T09:59:55.915Z,50.902374
2022-10-29T10:00:55.930Z,50.902351
2022-10-29T10:01:55.939Z,50.902306
2022-10-29T10:02:56.576Z,50.902317
2022-10-29T10:03:55.913Z,50.902340
2022-10-29T10:04:55.873Z,50.902328
2022-10-29T10:05:55.893Z,50.902359
2022-10-29T10:06:55.864Z,50.902363
2022-10-29T10:07:56.153Z,50.902363
2022-10-29T10:08:55.839Z,50.902370
2022-10-29T10:09:55.831Z,50.902363
2022-10-29T10:10:55.871Z,50.902336
2022-10-29T10:11:55.810Z,50.902363
2022-10-29T10:12:55.812Z,50.902355
2022-10-29T10:13:55.795Z,50.902367
2022-10-29T10:14:55.800Z,50.902332
2022-10-29T10:15:55.785Z,50.902340
2022-10-29T10:16:55.801Z,50.902359
2022-10-29T10:17:56.351Z,50.902348
2022-10-29T10:18:57.721Z,50.902374
2022-10-29T10:19:55.777Z,50.902397
2022-10-29T10:20:55.839Z,50.902447
2022-10-29T10:21:55.769Z,50.902306
2022-10-29T10:22:56.222Z,50.902355
2022-10-29T10:23:55.761Z,50.902321
2022-10-29T10:24:55.788Z,50.902359
2022-10-29T10:25:58.926Z,50.902313
2022-10-29T10:26:57.787Z,50.902313
2022-10-29T10:27:55.843Z,50.902325
2022-10-29T10:28:55.725Z,50.902340
2022-10-29T10:29:55.741Z,50.902340
2022-10-29T10:30:55.691Z,50.902386
2022-10-29T10:31:55.714Z,50.902412
2022-10-29T10:32:55.773Z,50.902447
2022-10-29T10:33:55.688Z,50.902416
2022-10-29T10:34:55.676Z,50.902420
2022-10-29T10:35:55.659Z,50.902435
2022-10-29T10:36:55.708Z,50.902416
2022-10-29T10:37:55.950Z,50.902424
2022-10-29T10:38:55.639Z,50.902435
2022-10-29T10:39:55.620Z,50.902451
2022-10-29T10:40:55.644Z,50.902424
2022-10-29T10:41:55.646Z,50.902439
2022-10-29T10:42:55.613Z,50.902447
2022-10-29T10:43:55.596Z,50.902443
2022-10-29T10:44:55.586Z,50.902439
2022-10-29T10:45:55.577Z,50.902424
2022-10-29T10:46:55.575Z,50.902428
2022-10-29T10:47:56.039Z,50.902435
2022-10-29T10:48:55.537Z,50.902454
2022-10-29T10:49:55.560Z,50.902435
2022-10-29T10:50:55.581Z,50.902412
2022-10-29T10:51:55.571Z,50.902401
2022-10-29T10:52:55.752Z,50.902401
2022-10-29T10:53:55.552Z,50.902397
2022-10-29T10:54:55.478Z,50.902412
2022-10-29T10:55:55.474Z,50.902420
2022-10-29T10:56:56.488Z,50.902424
2022-10-29T10:57:55.457Z,50.902397
2022-10-29T10:58:55.456Z,50.902428
2022-10-29T10:59:55.460Z,50.902405
2022-10-29T11:00:55.455Z,50.902458
2022-10-29T11:01:55.603Z,50.902424
2022-10-29T11:02:55.684Z,50.902431
2022-10-29T11:03:55.421Z,50.902454
2022-10-29T11:04:55.402Z,50.902470
2022-10-29T11:05:55.388Z,50.902454
2022-10-29T11:06:55.415Z,50.902435
2022-10-29T11:07:55.785Z,50.902416
2022-10-29T11:08:55.445Z,50.902451
2022-10-29T11:09:55.421Z,50.902466
2022-10-29T11:10:55.373Z,50.902473
2022-10-29T11:11:58.870Z,50.902435
2022-10-29T11:12:56.338Z,50.902458
2022-10-29T11:13:55.371Z,50.902485
2022-10-29T11:14:55.329Z,50.902527
2022-10-29T11:15:55.317Z,50.902470
2022-10-29T11:16:55.341Z,50.902508
2022-10-29T11:17:55.429Z,50.902519
2022-10-29T11:18:55.291Z,50.902485
2022-10-29T11:19:55.290Z,50.902390
2022-10-29T11:20:55.279Z,50.902405
2022-10-29T11:21:55.302Z,50.902473
2022-10-29T11:22:55.562Z,50.902477
2022-10-29T11:23:55.248Z,50.902481
2022-10-29T11:24:55.243Z,50.902470
2022-10-29T11:25:55.240Z,50.902370
2022-10-29T11:26:55.257Z,50.902409
2022-10-29T11:27:55.247Z,50.902359
2022-10-29T11:28:55.211Z,50.902351
2022-10-29T11:29:55.209Z,50.902344
2022-10-29T11:30:55.210Z,50.902401
2022-10-29T11:31:55.218Z,50.902409
2022-10-29T11:32:55.624Z,50.902370